PWSweather.com
Personal Weather Stations
Station Observations
PUKANEC
Pukanec, PukanecSK 93505

PukanecPukanecSK 93505

Lat: 48.343102, Lon: 18.709703

Elevation: 1263

Station Type: MeteoHelix Pro IoT

https://emeteo.sk/@pukanec

Latest ConditionsUpdated 4:10:08 PM GMT+01:01 Thursday, Nov 14, 2019
Currently Today's Max Today's Min Today's Average
Temperature 47.3°F8.5°C 49.3°F9.6°C 37.0°F2.8°C 41.2°F5.1°C
Dew Point 44.0°F6.7°C 47.0°F8.3°C 36.0°F2.2°C 40.0°F4.4°C
Winds - N N - - - - -
Wind Gusts -- -- - -
Humidity 87% 98% 86% 95%
Pressure 29.90 in1012.5 mb 29.93 in1013.5 mb 29.79 in1008.8 mb -
Precipitation - 0.01 in0.3 mm - -
Hour Temp Dew Point Humidity Winds Wind Gusts Pressure Precip Precip Rate Daily Precip Total
04:10 PM 47.3°F8.5°C 44.0°F6.7°C 87% - N N -- 29.90 in1012.5 mb 0.00 in0.0 mm 0.00 in0.0 mm 0.01 in0.3 mm
04:00 PM 47.5°F8.6°C 44.0°F6.7°C 86% - N N -- 29.90 in1012.5 mb 0.00 in0.0 mm 0.00 in0.0 mm 0.01 in0.3 mm
03:50 PM 48.2°F9.0°C 44.0°F6.7°C 86% - N N -- 29.90 in1012.5 mb 0.00 in0.0 mm 0.00 in0.0 mm 0.01 in0.3 mm
03:40 PM 48.9°F9.4°C 45.0°F7.2°C 86% - N N -- 29.89 in1012.2 mb 0.00 in0.0 mm 0.00 in0.0 mm 0.01 in0.3 mm
03:30 PM 49.3°F9.6°C 45.0°F7.2°C 87% - N N -- 29.89 in1012.2 mb 0.00 in0.0 mm 0.00 in0.0 mm 0.01 in0.3 mm
03:20 PM 48.9°F9.4°C 45.0°F7.2°C 87% - N N -- 29.89 in1012.2 mb 0.00 in0.0 mm 0.00 in0.0 mm 0.01 in0.3 mm
03:10 PM 48.9°F9.4°C 46.0°F7.8°C 88% - N N -- 29.89 in1012.2 mb 0.00 in0.0 mm 0.00 in0.0 mm 0.01 in0.3 mm
03:00 PM 49.1°F9.5°C 46.0°F7.8°C 89% - N N -- 29.90 in1012.5 mb 0.00 in0.0 mm 0.00 in0.0 mm 0.01 in0.3 mm
02:50 PM 49.1°F9.5°C 46.0°F7.8°C 90% - N N -- 29.90 in1012.5 mb 0.00 in0.0 mm 0.00 in0.0 mm 0.01 in0.3 mm
02:40 PM 48.9°F9.4°C 46.0°F7.8°C 91% - N N -- 29.90 in1012.5 mb 0.00 in0.0 mm 0.00 in0.0 mm 0.01 in0.3 mm
02:30 PM 48.9°F9.4°C 47.0°F8.3°C 91% - N N -- 29.90 in1012.5 mb 0.00 in0.0 mm 0.00 in0.0 mm 0.01 in0.3 mm
02:20 PM 48.7°F9.3°C 46.0°F7.8°C 92% - N N -- 29.90 in1012.5 mb 0.00 in0.0 mm 0.00 in0.0 mm 0.01 in0.3 mm
02:10 PM 48.4°F9.1°C 46.0°F7.8°C 92% - N N -- 29.91 in1012.9 mb 0.00 in0.0 mm 0.00 in0.0 mm 0.01 in0.3 mm
02:00 PM 48.4°F9.1°C 46.0°F7.8°C 92% - N N -- 29.91 in1012.9 mb 0.00 in0.0 mm 0.00 in0.0 mm 0.01 in0.3 mm
01:50 PM 48.7°F9.3°C 46.0°F7.8°C 91% - N N -- 29.90 in1012.5 mb 0.00 in0.0 mm 0.00 in0.0 mm 0.01 in0.3 mm
01:40 PM 48.6°F9.2°C 46.0°F7.8°C 91% - N N -- 29.90 in1012.5 mb 0.00 in0.0 mm 0.00 in0.0 mm 0.01 in0.3 mm
01:30 PM 48.6°F9.2°C 46.0°F7.8°C 92% - N N -- 29.90 in1012.5 mb 0.00 in0.0 mm 0.00 in0.0 mm 0.01 in0.3 mm
01:20 PM 47.7°F8.7°C 46.0°F7.8°C 93% - N N -- 29.90 in1012.5 mb 0.00 in0.0 mm 0.00 in0.0 mm 0.01 in0.3 mm
01:10 PM 47.1°F8.4°C 45.0°F7.2°C 93% - N N -- 29.90 in1012.5 mb 0.00 in0.0 mm 0.00 in0.0 mm 0.01 in0.3 mm
01:00 PM 46.9°F8.3°C 45.0°F7.2°C 93% - N N -- 29.90 in1012.5 mb 0.00 in0.0 mm 0.00 in0.0 mm 0.01 in0.3 mm
12:50 PM 46.9°F8.3°C 45.0°F7.2°C 94% - N N -- 29.90 in1012.5 mb 0.00 in0.0 mm 0.00 in0.0 mm 0.01 in0.3 mm
12:40 PM 47.1°F8.4°C 46.0°F7.8°C 94% - N N -- 29.90 in1012.5 mb 0.00 in0.0 mm 0.00 in0.0 mm 0.01 in0.3 mm
12:30 PM 46.6°F8.1°C 45.0°F7.2°C 94% - N N -- 29.90 in1012.5 mb 0.00 in0.0 mm 0.00 in0.0 mm 0.01 in0.3 mm
12:20 PM 46.8°F8.2°C 45.0°F7.2°C 95% - N N -- 29.90 in1012.5 mb 0.00 in0.0 mm 0.00 in0.0 mm 0.01 in0.3 mm
12:10 PM 46.4°F8.0°C 45.0°F7.2°C 96% - N N -- 29.90 in1012.5 mb 0.00 in0.0 mm 0.00 in0.0 mm 0.01 in0.3 mm
12:00 PM 45.5°F7.5°C 44.0°F6.7°C 96% - N N -- 29.91 in1012.9 mb 0.00 in0.0 mm 0.00 in0.0 mm 0.01 in0.3 mm
11:50 AM 44.2°F6.8°C 43.0°F6.1°C 97% - N N -- 29.91 in1012.9 mb 0.00 in0.0 mm 0.00 in0.0 mm 0.01 in0.3 mm
11:40 AM 43.3°F6.3°C 43.0°F6.1°C 97% - N N -- 29.91 in1012.9 mb 0.00 in0.0 mm 0.00 in0.0 mm 0.01 in0.3 mm
11:30 AM 42.6°F5.9°C 42.0°F5.6°C 97% - N N -- 29.92 in1013.2 mb 0.00 in0.0 mm 0.00 in0.0 mm 0.01 in0.3 mm
11:20 AM 42.1°F5.6°C 41.0°F5.0°C 97% - N N -- 29.92 in1013.2 mb 0.00 in0.0 mm 0.00 in0.0 mm 0.01 in0.3 mm
11:10 AM 41.4°F5.2°C 41.0°F5.0°C 98% - N N -- 29.92 in1013.2 mb 0.00 in0.0 mm 0.00 in0.0 mm 0.01 in0.3 mm
11:00 AM 40.6°F4.8°C 40.0°F4.4°C 97% - N N -- 29.93 in1013.5 mb 0.00 in0.0 mm 0.00 in0.0 mm 0.01 in0.3 mm
10:50 AM 40.5°F4.7°C 40.0°F4.4°C 97% - N N -- 29.93 in1013.5 mb 0.00 in0.0 mm 0.00 in0.0 mm 0.01 in0.3 mm
10:40 AM 40.8°F4.9°C 40.0°F4.4°C 97% - N N -- 29.93 in1013.5 mb 0.00 in0.0 mm 0.00 in0.0 mm 0.01 in0.3 mm
10:30 AM 40.8°F4.9°C 40.0°F4.4°C 98% - N N -- 29.92 in1013.2 mb 0.00 in0.0 mm 0.00 in0.0 mm 0.01 in0.3 mm
10:20 AM 40.6°F4.8°C 40.0°F4.4°C 98% - N N -- 29.92 in1013.2 mb 0.00 in0.0 mm 0.00 in0.0 mm 0.01 in0.3 mm
10:10 AM 40.1°F4.5°C 39.0°F3.9°C 97% - N N -- 29.92 in1013.2 mb 0.00 in0.0 mm 0.00 in0.0 mm 0.01 in0.3 mm
10:00 AM 40.1°F4.5°C 39.0°F3.9°C 97% - N N -- 29.92 in1013.2 mb 0.00 in0.0 mm 0.00 in0.0 mm 0.01 in0.3 mm
09:50 AM 40.1°F4.5°C 40.0°F4.4°C 98% - N N -- 29.91 in1012.9 mb 0.00 in0.0 mm 0.00 in0.0 mm 0.01 in0.3 mm
09:40 AM 39.4°F4.1°C 39.0°F3.9°C 98% - N N -- 29.91 in1012.9 mb 0.00 in0.0 mm 0.00 in0.0 mm 0.01 in0.3 mm
09:30 AM 39.0°F3.9°C 38.0°F3.3°C 98% - N N -- 29.91 in1012.9 mb 0.00 in0.0 mm 0.00 in0.0 mm 0.01 in0.3 mm
09:20 AM 38.5°F3.6°C 38.0°F3.3°C 97% - N N -- 29.91 in1012.9 mb 0.00 in0.0 mm 0.00 in0.0 mm 0.01 in0.3 mm
09:10 AM 38.1°F3.4°C 38.0°F3.3°C 98% - N N -- 29.91 in1012.9 mb 0.00 in0.0 mm 0.00 in0.0 mm 0.01 in0.3 mm
09:00 AM 37.8°F3.2°C 37.0°F2.8°C 97% - N N -- 29.91 in1012.9 mb 0.00 in0.0 mm 0.00 in0.0 mm 0.01 in0.3 mm
08:50 AM 37.6°F3.1°C 37.0°F2.8°C 97% - N N -- 29.91 in1012.9 mb 0.00 in0.0 mm 0.00 in0.0 mm 0.01 in0.3 mm
08:40 AM 37.6°F3.1°C 37.0°F2.8°C 97% - N N -- 29.91 in1012.9 mb 0.00 in0.0 mm 0.00 in0.0 mm 0.01 in0.3 mm
08:30 AM 37.9°F3.3°C 37.0°F2.8°C 97% - N N -- 29.91 in1012.9 mb 0.00 in0.0 mm 0.00 in0.0 mm 0.01 in0.3 mm
08:20 AM 37.9°F3.3°C 37.0°F2.8°C 97% - N N -- 29.91 in1012.9 mb 0.00 in0.0 mm 0.00 in0.0 mm 0.01 in0.3 mm
08:10 AM 37.8°F3.2°C 37.0°F2.8°C 97% - N N -- 29.91 in1012.9 mb 0.00 in0.0 mm 0.00 in0.0 mm 0.01 in0.3 mm
08:00 AM 37.6°F3.1°C 37.0°F2.8°C 97% - N N -- 29.91 in1012.9 mb 0.00 in0.0 mm 0.00 in0.0 mm 0.01 in0.3 mm
07:50 AM 37.6°F3.1°C 37.0°F2.8°C 97% - N N -- 29.91 in1012.9 mb 0.00 in0.0 mm 0.00 in0.0 mm 0.01 in0.3 mm
07:40 AM 37.8°F3.2°C 37.0°F2.8°C 97% - N N -- 29.90 in1012.5 mb 0.01 in0.3 mm 0.00 in0.0 mm 0.01 in0.3 mm
07:30 AM 37.6°F3.1°C 37.0°F2.8°C 97% - N N -- 29.90 in1012.5 mb 0.01 in0.3 mm 0.00 in0.0 mm 0.01 in0.3 mm
07:20 AM 37.4°F3.0°C 37.0°F2.8°C 97% - N N -- 29.90 in1012.5 mb 0.01 in0.3 mm 0.00 in0.0 mm 0.01 in0.3 mm
07:10 AM 37.0°F2.8°C 36.0°F2.2°C 97% - N N -- 29.90 in1012.5 mb 0.01 in0.3 mm 0.00 in0.0 mm 0.01 in0.3 mm
07:00 AM 37.0°F2.8°C 36.0°F2.2°C 97% - N N -- 29.90 in1012.5 mb 0.01 in0.3 mm 0.00 in0.0 mm 0.01 in0.3 mm
06:50 AM 37.2°F2.9°C 37.0°F2.8°C 97% - N N -- 29.89 in1012.2 mb 0.01 in0.3 mm 0.06 in1.5 mm 0.01 in0.3 mm
06:40 AM 37.6°F3.1°C 37.0°F2.8°C 97% - N N -- 29.88 in1011.9 mb 0.00 in0.0 mm 0.00 in0.0 mm 0.00 in0.0 mm
06:30 AM 37.9°F3.3°C 37.0°F2.8°C 97% - N N -- 29.87 in1011.5 mb 0.00 in0.0 mm 0.00 in0.0 mm 0.00 in0.0 mm
06:20 AM 37.9°F3.3°C 37.0°F2.8°C 97% - N N -- 29.87 in1011.5 mb 0.00 in0.0 mm 0.00 in0.0 mm 0.00 in0.0 mm
06:10 AM 37.9°F3.3°C 37.0°F2.8°C 97% - N N -- 29.87 in1011.5 mb 0.00 in0.0 mm 0.00 in0.0 mm 0.00 in0.0 mm
06:00 AM 37.9°F3.3°C 37.0°F2.8°C 97% - N N -- 29.86 in1011.2 mb 0.00 in0.0 mm 0.00 in0.0 mm 0.00 in0.0 mm
05:50 AM 37.9°F3.3°C 37.0°F2.8°C 97% - N N -- 29.87 in1011.5 mb 0.00 in0.0 mm 0.00 in0.0 mm 0.00 in0.0 mm
05:40 AM 37.9°F3.3°C 37.0°F2.8°C 97% - N N -- 29.87 in1011.5 mb 0.00 in0.0 mm 0.00 in0.0 mm 0.00 in0.0 mm
05:30 AM 38.1°F3.4°C 37.0°F2.8°C 97% - N N -- 29.86 in1011.2 mb 0.00 in0.0 mm 0.00 in0.0 mm 0.00 in0.0 mm
05:20 AM 38.3°F3.5°C 38.0°F3.3°C 97% - N N -- 29.86 in1011.2 mb 0.00 in0.0 mm 0.00 in0.0 mm 0.00 in0.0 mm
05:10 AM 38.3°F3.5°C 38.0°F3.3°C 97% - N N -- 29.85 in1010.8 mb 0.00 in0.0 mm 0.00 in0.0 mm 0.00 in0.0 mm
05:00 AM 38.3°F3.5°C 38.0°F3.3°C 97% - N N -- 29.85 in1010.8 mb 0.00 in0.0 mm 0.00 in0.0 mm 0.00 in0.0 mm
04:50 AM 38.1°F3.4°C 37.0°F2.8°C 97% - N N -- 29.85 in1010.8 mb 0.00 in0.0 mm 0.00 in0.0 mm 0.00 in0.0 mm
04:40 AM 38.3°F3.5°C 38.0°F3.3°C 97% - N N -- 29.85 in1010.8 mb 0.00 in0.0 mm 0.00 in0.0 mm 0.00 in0.0 mm
04:30 AM 38.5°F3.6°C 38.0°F3.3°C 97% - N N -- 29.85 in1010.8 mb 0.00 in0.0 mm 0.00 in0.0 mm 0.00 in0.0 mm
04:20 AM 38.5°F3.6°C 38.0°F3.3°C 97% - N N -- 29.85 in1010.8 mb 0.00 in0.0 mm 0.00 in0.0 mm 0.00 in0.0 mm
04:10 AM 38.5°F3.6°C 38.0°F3.3°C 97% - N N -- 29.84 in1010.5 mb 0.00 in0.0 mm 0.00 in0.0 mm 0.00 in0.0 mm
04:00 AM 38.7°F3.7°C 38.0°F3.3°C 97% - N N -- 29.84 in1010.5 mb 0.00 in0.0 mm 0.00 in0.0 mm 0.00 in0.0 mm
03:50 AM 38.7°F3.7°C 38.0°F3.3°C 97% - N N -- 29.84 in1010.5 mb 0.00 in0.0 mm 0.00 in0.0 mm 0.00 in0.0 mm
03:40 AM 38.5°F3.6°C 38.0°F3.3°C 97% - N N -- 29.84 in1010.5 mb 0.00 in0.0 mm 0.00 in0.0 mm 0.00 in0.0 mm
03:30 AM 38.5°F3.6°C 38.0°F3.3°C 97% - N N -- 29.84 in1010.5 mb 0.00 in0.0 mm 0.00 in0.0 mm 0.00 in0.0 mm
03:20 AM 38.5°F3.6°C 38.0°F3.3°C 97% - N N -- 29.84 in1010.5 mb 0.00 in0.0 mm 0.00 in0.0 mm 0.00 in0.0 mm
03:10 AM 38.5°F3.6°C 38.0°F3.3°C 97% - N N -- 29.83 in1010.2 mb 0.00 in0.0 mm 0.00 in0.0 mm 0.00 in0.0 mm
03:00 AM 38.7°F3.7°C 38.0°F3.3°C 97% - N N -- 29.83 in1010.2 mb 0.00 in0.0 mm 0.00 in0.0 mm 0.00 in0.0 mm
02:50 AM 38.8°F3.8°C 38.0°F3.3°C 97% - N N -- 29.84 in1010.5 mb 0.00 in0.0 mm 0.00 in0.0 mm 0.00 in0.0 mm
02:40 AM 38.8°F3.8°C 38.0°F3.3°C 97% - N N -- 29.83 in1010.2 mb 0.00 in0.0 mm 0.00 in0.0 mm 0.00 in0.0 mm
02:30 AM 38.7°F3.7°C 38.0°F3.3°C 97% - N N -- 29.83 in1010.2 mb 0.00 in0.0 mm 0.00 in0.0 mm 0.00 in0.0 mm
02:20 AM 38.8°F3.8°C 38.0°F3.3°C 97% - N N -- 29.83 in1010.2 mb 0.00 in0.0 mm 0.00 in0.0 mm 0.00 in0.0 mm
02:10 AM 38.7°F3.7°C 38.0°F3.3°C 97% - N N -- 29.83 in1010.2 mb 0.00 in0.0 mm 0.00 in0.0 mm 0.00 in0.0 mm
02:00 AM 38.7°F3.7°C 38.0°F3.3°C 97% - N N -- 29.82 in1009.8 mb 0.00 in0.0 mm 0.00 in0.0 mm 0.00 in0.0 mm
01:50 AM 38.7°F3.7°C 38.0°F3.3°C 97% - N N -- 29.82 in1009.8 mb 0.00 in0.0 mm 0.00 in0.0 mm 0.00 in0.0 mm
01:40 AM 38.7°F3.7°C 38.0°F3.3°C 97% - N N -- 29.81 in1009.5 mb 0.00 in0.0 mm 0.00 in0.0 mm 0.00 in0.0 mm
01:30 AM 38.5°F3.6°C 38.0°F3.3°C 97% - N N -- 29.81 in1009.5 mb 0.00 in0.0 mm 0.00 in0.0 mm 0.00 in0.0 mm
01:20 AM 38.5°F3.6°C 38.0°F3.3°C 97% - N N -- 29.80 in1009.1 mb 0.00 in0.0 mm 0.00 in0.0 mm 0.00 in0.0 mm
01:10 AM 38.3°F3.5°C 37.0°F2.8°C 96% - N N -- 29.80 in1009.1 mb 0.00 in0.0 mm 0.00 in0.0 mm 0.00 in0.0 mm
01:00 AM 38.3°F3.5°C 37.0°F2.8°C 96% - N N -- 29.80 in1009.1 mb 0.00 in0.0 mm 0.00 in0.0 mm 0.00 in0.0 mm
12:50 AM 38.5°F3.6°C 38.0°F3.3°C 96% - N N -- 29.80 in1009.1 mb 0.00 in0.0 mm 0.00 in0.0 mm 0.00 in0.0 mm
12:40 AM 38.5°F3.6°C 38.0°F3.3°C 96% - N N -- 29.80 in1009.1 mb 0.00 in0.0 mm 0.00 in0.0 mm 0.00 in0.0 mm
12:30 AM 38.5°F3.6°C 38.0°F3.3°C 96% - N N -- 29.80 in1009.1 mb 0.00 in0.0 mm 0.00 in0.0 mm 0.00 in0.0 mm
12:20 AM 38.5°F3.6°C 38.0°F3.3°C 96% - N N -- 29.80 in1009.1 mb 0.00 in0.0 mm 0.00 in0.0 mm 0.00 in0.0 mm
12:10 AM 38.5°F3.6°C 37.0°F2.8°C 96% - N N -- 29.80 in1009.1 mb 0.00 in0.0 mm 0.00 in0.0 mm 0.00 in0.0 mm
12:00 AM 38.7°F3.7°C 38.0°F3.3°C 96% - N N -- 29.79 in1008.8 mb 0.00 in0.0 mm 0.00 in0.0 mm 0.00 in0.0 mm